Dirección General De Aeronáutica Civil

Dirección Meteorológica de Chile - Servicios Climáticos

Informe General de Control de Calidad de la Estación

Listado de niveles de control de calidad para algunos parámetros
Estación Mariquina (390049)
Fecha de Revisión de los datos :

Elementos

Registros Niveles de Control Total
Nivel 0 Nivel 1 Nivel 2 Nivel 3 Errores Porcentaje
01 Temperatura del Aire Seco 118.576 0 . 205 0.17 % 0 . 0 . 205 0.17 %
02 Temperatura de Rocío 118.572 0 . 0 . 0 . 0 . 0 0.00 %
03 Humedad Relativa del Aire 118.576 0 . 0 . 0 . 0 . 0 0.00 %
04 Temperatura Máxima PM 637 0 . 0 . 0 . 0 . 0 0.00 %
05 Temperatura Mínima AM 617 0 . 0 . 0 . 0 . 0 0.00 %
06 Agua Caida, Acumulada 6 Horas 21.524 0 . 0 . 0 . 0 . 0 0.00 %
07 Presión Atm. a Nivel de Estación (QFE) 117.695 0 . 0 . 0 . 0 . 0 0.00 %
08 Presión Atm. a Nivel Medio del Mar (QFF) 14.842 0 . 0 . 0 . 0 . 0 0.00 %
09 Presión Atm. Estándar OACI (QNH) 14.842 0 . 0 . 0 . 0 . 0 0.00 %

Totales

525.881 . 0.0000 % . 0.0390 % . 0.0000 % . 0.0000 % 205 0.0390 %

Detalle de Errores Encontrados

Nivel Fecha del Dato Descripción Información Error Fecha Ingreso
1 2019-10-01 12:00:00 Ts debe ser mayor o igual a Td Ts=4.4 - Td=4.7 2023-11-08 10:24:00
1 2019-10-02 12:00:00 Ts debe ser mayor o igual a Td Ts=-0.7 - Td=0.1 2023-11-08 10:24:00
1 2019-10-02 13:00:00 Ts debe ser mayor o igual a Td Ts=0.5 - Td=2.2 2023-11-08 10:24:00
1 2019-10-02 14:00:00 Ts debe ser mayor o igual a Td Ts=2.5 - Td=5.8 2023-11-08 10:24:00
1 2019-10-02 15:00:00 Ts debe ser mayor o igual a Td Ts=6.5 - Td=7.2 2023-11-08 10:24:00
1 2019-10-03 11:00:00 Ts debe ser mayor o igual a Td Ts=0.7 - Td=0.8 2023-11-08 10:25:00
1 2019-10-03 12:00:00 Ts debe ser mayor o igual a Td Ts=1.2 - Td=5.4 2023-11-08 10:25:00
1 2019-10-04 07:00:00 Ts debe ser mayor o igual a Td Ts=3.3 - Td=3.8 2023-11-08 10:25:00
1 2019-10-04 08:00:00 Ts debe ser mayor o igual a Td Ts=4.3 - Td=4.5 2023-11-08 10:25:00
1 2019-10-04 09:00:00 Ts debe ser mayor o igual a Td Ts=4.9 - Td=5.2 2023-11-08 10:25:00
1 2019-10-04 11:00:00 Ts debe ser mayor o igual a Td Ts=5.5 - Td=6.0 2023-11-08 10:25:00
1 2019-10-04 12:00:00 Ts debe ser mayor o igual a Td Ts=6.4 - Td=6.7 2023-11-08 10:25:00
1 2019-10-04 13:00:00 Ts debe ser mayor o igual a Td Ts=7.1 - Td=7.8 2023-11-08 10:25:00
1 2019-10-05 10:00:00 Ts debe ser mayor o igual a Td Ts=1.4 - Td=1.6 2023-11-08 10:25:00
1 2019-10-05 11:00:00 Ts debe ser mayor o igual a Td Ts=2.0 - Td=2.2 2023-11-08 10:25:00
1 2019-10-05 12:00:00 Ts debe ser mayor o igual a Td Ts=2.6 - Td=3.5 2023-11-08 10:25:00
1 2019-10-05 13:00:00 Ts debe ser mayor o igual a Td Ts=3.9 - Td=5.1 2023-11-08 10:25:00
1 2019-10-05 14:00:00 Ts debe ser mayor o igual a Td Ts=5.5 - Td=6.4 2023-11-08 10:25:00
1 2019-10-06 13:00:00 Ts debe ser mayor o igual a Td Ts=10.7 - Td=10.9 2023-11-08 10:25:00
1 2019-10-06 14:00:00 Ts debe ser mayor o igual a Td Ts=11.4 - Td=11.5 2023-11-08 10:25:00
1 2019-10-07 07:00:00 Ts debe ser mayor o igual a Td Ts=7.2 - Td=7.4 2023-11-08 10:25:00
1 2019-10-07 11:00:00 Ts debe ser mayor o igual a Td Ts=6.9 - Td=7.4 2023-11-08 10:25:00
1 2019-10-07 12:00:00 Ts debe ser mayor o igual a Td Ts=7.6 - Td=10.3 2023-11-08 10:25:00
1 2019-10-08 09:00:00 Ts debe ser mayor o igual a Td Ts=2.3 - Td=3.2 2023-11-08 10:25:00
1 2019-10-08 12:00:00 Ts debe ser mayor o igual a Td Ts=3.1 - Td=3.9 2023-11-08 10:25:00
1 2019-10-08 13:00:00 Ts debe ser mayor o igual a Td Ts=4.2 - Td=5.9 2023-11-08 10:25:00
1 2019-10-08 14:00:00 Ts debe ser mayor o igual a Td Ts=6.2 - Td=8.0 2023-11-08 10:25:00
1 2019-10-08 15:00:00 Ts debe ser mayor o igual a Td Ts=8.4 - Td=9.0 2023-11-08 10:25:00
1 2019-10-09 11:00:00 Ts debe ser mayor o igual a Td Ts=2.8 - Td=4.3 2023-11-08 10:25:00
1 2019-10-09 12:00:00 Ts debe ser mayor o igual a Td Ts=4.6 - Td=7.3 2023-11-08 10:25:00
1 2019-10-09 13:00:00 Ts debe ser mayor o igual a Td Ts=7.7 - Td=9.5 2023-11-08 10:25:00
1 2019-10-10 10:00:00 Ts debe ser mayor o igual a Td Ts=6.7 - Td=7.2 2023-11-08 10:25:00
1 2019-10-10 11:00:00 Ts debe ser mayor o igual a Td Ts=7.5 - Td=8.2 2023-11-08 10:25:00
1 2019-10-10 12:00:00 Ts debe ser mayor o igual a Td Ts=8.5 - Td=9.3 2023-11-08 10:25:00
1 2019-10-10 13:00:00 Ts debe ser mayor o igual a Td Ts=9.6 - Td=10.1 2023-11-08 10:25:00
1 2019-10-10 14:00:00 Ts debe ser mayor o igual a Td Ts=10.5 - Td=10.9 2023-11-08 10:25:00
1 2019-10-10 15:00:00 Ts debe ser mayor o igual a Td Ts=11.9 - Td=14.3 2023-11-08 10:25:00
1 2019-10-11 11:00:00 Ts debe ser mayor o igual a Td Ts=3.9 - Td=5.3 2023-11-08 10:25:00
1 2019-10-11 12:00:00 Ts debe ser mayor o igual a Td Ts=5.6 - Td=9.7 2023-11-08 10:25:00
1 2019-10-12 11:00:00 Ts debe ser mayor o igual a Td Ts=10.0 - Td=10.1 2023-11-08 10:25:00
1 2019-10-12 12:00:00 Ts debe ser mayor o igual a Td Ts=10.5 - Td=10.8 2023-11-08 10:25:00
1 2019-10-12 13:00:00 Ts debe ser mayor o igual a Td Ts=11.5 - Td=11.7 2023-11-08 10:25:00
1 2019-10-14 11:00:00 Ts debe ser mayor o igual a Td Ts=2.3 - Td=4.1 2023-11-08 10:25:00
1 2019-10-14 12:00:00 Ts debe ser mayor o igual a Td Ts=4.7 - Td=5.8 2023-11-08 10:25:00
1 2019-10-15 16:00:00 Ts debe ser mayor o igual a Td Ts=11.1 - Td=11.8 2023-11-08 10:25:00
1 2019-10-16 07:00:00 Ts debe ser mayor o igual a Td Ts=5.7 - Td=6.0 2023-11-08 10:25:00
1 2019-10-16 11:00:00 Ts debe ser mayor o igual a Td Ts=4.7 - Td=6.2 2023-11-08 10:25:00
1 2019-10-16 12:00:00 Ts debe ser mayor o igual a Td Ts=6.5 - Td=8.2 2023-11-08 10:25:00
1 2019-10-16 13:00:00 Ts debe ser mayor o igual a Td Ts=8.5 - Td=11.1 2023-11-08 10:25:00
1 2019-10-17 11:00:00 Ts debe ser mayor o igual a Td Ts=7.3 - Td=7.8 2023-11-08 10:25:00
1 2019-10-17 12:00:00 Ts debe ser mayor o igual a Td Ts=8.3 - Td=9.4 2023-11-08 10:25:00
1 2019-10-18 10:00:00 Ts debe ser mayor o igual a Td Ts=4.8 - Td=5.9 2023-11-08 10:25:00
1 2019-10-18 11:00:00 Ts debe ser mayor o igual a Td Ts=6.4 - Td=7.3 2023-11-08 10:25:00
1 2019-10-19 11:00:00 Ts debe ser mayor o igual a Td Ts=2.9 - Td=6.0 2023-11-08 10:25:00
1 2019-10-19 12:00:00 Ts debe ser mayor o igual a Td Ts=6.4 - Td=9.2 2023-11-08 10:25:00
1 2019-10-21 11:00:00 Ts debe ser mayor o igual a Td Ts=5.7 - Td=6.4 2023-11-08 10:25:00
1 2019-10-21 12:00:00 Ts debe ser mayor o igual a Td Ts=6.8 - Td=8.5 2023-11-08 10:25:00
1 2019-10-22 11:00:00 Ts debe ser mayor o igual a Td Ts=2.9 - Td=5.3 2023-11-08 10:25:00
1 2019-10-22 12:00:00 Ts debe ser mayor o igual a Td Ts=6.9 - Td=7.1 2023-11-08 10:25:00
1 2019-10-23 11:00:00 Ts debe ser mayor o igual a Td Ts=1.3 - Td=5.6 2023-11-08 10:25:00
1 2019-10-23 12:00:00 Ts debe ser mayor o igual a Td Ts=6.0 - Td=8.0 2023-11-08 10:25:00
1 2019-10-24 11:00:00 Ts debe ser mayor o igual a Td Ts=3.4 - Td=4.6 2023-11-08 10:25:00
1 2019-10-24 12:00:00 Ts debe ser mayor o igual a Td Ts=4.9 - Td=6.8 2023-11-08 10:25:00
1 2019-10-24 13:00:00 Ts debe ser mayor o igual a Td Ts=7.2 - Td=9.1 2023-11-08 10:25:00
1 2019-10-25 13:00:00 Ts debe ser mayor o igual a Td Ts=11.1 - Td=11.4 2023-11-08 10:25:00
1 2019-10-25 14:00:00 Ts debe ser mayor o igual a Td Ts=12.5 - Td=13.7 2023-11-08 10:25:00
1 2019-10-26 11:00:00 Ts debe ser mayor o igual a Td Ts=11.0 - Td=11.4 2023-11-08 10:25:00
1 2019-10-26 12:00:00 Ts debe ser mayor o igual a Td Ts=11.7 - Td=11.8 2023-11-08 10:25:00
1 2019-10-26 15:00:00 Ts debe ser mayor o igual a Td Ts=12.6 - Td=12.7 2023-11-08 10:25:00
1 2019-10-27 05:00:00 Ts debe ser mayor o igual a Td Ts=6.5 - Td=6.8 2023-11-08 10:25:00
1 2019-10-27 10:00:00 Ts debe ser mayor o igual a Td Ts=6.2 - Td=6.5 2023-11-08 10:25:00
1 2019-10-27 12:00:00 Ts debe ser mayor o igual a Td Ts=7.1 - Td=8.4 2023-11-08 10:25:00
1 2019-10-28 12:00:00 Ts debe ser mayor o igual a Td Ts=9.9 - Td=10.8 2023-11-08 10:25:00
1 2019-10-28 21:00:00 Ts debe ser mayor o igual a Td Ts=9.6 - Td=10.1 2023-11-08 10:25:00
1 2019-10-30 05:00:00 Ts debe ser mayor o igual a Td Ts=4.3 - Td=4.4 2023-11-08 10:25:00
1 2019-10-30 09:00:00 Ts debe ser mayor o igual a Td Ts=3.4 - Td=3.8 2023-11-08 10:25:00
1 2019-10-30 10:00:00 Ts debe ser mayor o igual a Td Ts=4.2 - Td=4.6 2023-11-08 10:25:00
1 2019-10-30 11:00:00 Ts debe ser mayor o igual a Td Ts=4.8 - Td=5.2 2023-11-08 10:25:00
1 2019-10-30 12:00:00 Ts debe ser mayor o igual a Td Ts=5.5 - Td=6.8 2023-11-08 10:25:00
1 2019-10-30 13:00:00 Ts debe ser mayor o igual a Td Ts=7.0 - Td=8.7 2023-11-08 10:25:00
1 2019-10-30 14:00:00 Ts debe ser mayor o igual a Td Ts=9.0 - Td=9.9 2023-11-08 10:25:00
1 2019-10-31 10:00:00 Ts debe ser mayor o igual a Td Ts=2.0 - Td=2.3 2023-11-08 10:25:00
1 2019-10-31 11:00:00 Ts debe ser mayor o igual a Td Ts=2.7 - Td=3.8 2023-11-08 10:25:00
1 2019-10-31 12:00:00 Ts debe ser mayor o igual a Td Ts=4.1 - Td=6.1 2023-11-08 10:25:00
1 2019-10-31 13:00:00 Ts debe ser mayor o igual a Td Ts=6.5 - Td=9.6 2023-11-08 10:25:00
1 2019-11-01 13:00:00 Ts debe ser mayor o igual a Td Ts=10.7 - Td=11.0 2023-11-08 10:25:00
1 2019-11-01 19:00:00 Ts debe ser mayor o igual a Td Ts=11.6 - Td=11.7 2023-11-08 10:25:00
1 2019-11-02 09:00:00 Ts debe ser mayor o igual a Td Ts=3.1 - Td=3.4 2023-11-08 10:25:00
1 2019-11-02 10:00:00 Ts debe ser mayor o igual a Td Ts=3.7 - Td=4.5 2023-11-08 10:25:00
1 2019-11-02 11:00:00 Ts debe ser mayor o igual a Td Ts=4.8 - Td=5.5 2023-11-08 10:25:00
1 2019-11-02 12:00:00 Ts debe ser mayor o igual a Td Ts=5.7 - Td=6.6 2023-11-08 10:25:00
1 2019-11-02 13:00:00 Ts debe ser mayor o igual a Td Ts=6.9 - Td=8.7 2023-11-08 10:25:00
1 2019-11-02 14:00:00 Ts debe ser mayor o igual a Td Ts=9.0 - Td=9.3 2023-11-08 10:25:00
1 2019-11-03 10:00:00 Ts debe ser mayor o igual a Td Ts=2.6 - Td=2.7 2023-11-08 10:25:00
1 2019-11-03 11:00:00 Ts debe ser mayor o igual a Td Ts=3.0 - Td=6.7 2023-11-08 10:25:00
1 2019-11-03 12:00:00 Ts debe ser mayor o igual a Td Ts=7.0 - Td=8.6 2023-11-08 10:25:00
1 2019-11-04 01:00:00 Ts debe ser mayor o igual a Td Ts=11.2 - Td=11.3 2023-11-08 10:25:00
1 2019-11-04 11:00:00 Ts debe ser mayor o igual a Td Ts=8.5 - Td=9.6 2023-11-08 10:25:00
1 2019-11-05 10:00:00 Ts debe ser mayor o igual a Td Ts=2.2 - Td=2.3 2023-11-08 10:25:00
1 2019-11-05 11:00:00 Ts debe ser mayor o igual a Td Ts=2.6 - Td=4.2 2023-11-08 10:25:00
1 2019-11-05 12:00:00 Ts debe ser mayor o igual a Td Ts=4.5 - Td=6.3 2023-11-08 10:25:00
1 2019-11-05 13:00:00 Ts debe ser mayor o igual a Td Ts=6.6 - Td=8.4 2023-11-08 10:25:00
1 2019-11-05 14:00:00 Ts debe ser mayor o igual a Td Ts=8.8 - Td=9.4 2023-11-08 10:25:00
1 2019-11-06 09:00:00 Ts debe ser mayor o igual a Td Ts=4.0 - Td=4.5 2023-11-08 10:25:00
1 2019-11-06 10:00:00 Ts debe ser mayor o igual a Td Ts=4.8 - Td=5.9 2023-11-08 10:25:00
1 2019-11-06 11:00:00 Ts debe ser mayor o igual a Td Ts=6.2 - Td=7.0 2023-11-08 10:25:00
1 2019-11-06 12:00:00 Ts debe ser mayor o igual a Td Ts=7.3 - Td=8.9 2023-11-08 10:25:00
1 2019-11-06 13:00:00 Ts debe ser mayor o igual a Td Ts=9.3 - Td=9.7 2023-11-08 10:25:00
1 2019-11-07 06:00:00 Ts debe ser mayor o igual a Td Ts=7.1 - Td=7.7 2023-11-08 10:25:00
1 2019-11-07 07:00:00 Ts debe ser mayor o igual a Td Ts=8.1 - Td=8.6 2023-11-08 10:25:00
1 2019-11-07 09:00:00 Ts debe ser mayor o igual a Td Ts=8.7 - Td=9.1 2023-11-08 10:25:00
1 2019-11-07 11:00:00 Ts debe ser mayor o igual a Td Ts=9.7 - Td=10.1 2023-11-08 10:25:00
1 2019-11-07 12:00:00 Ts debe ser mayor o igual a Td Ts=10.5 - Td=11.5 2023-11-08 10:25:00
1 2019-11-08 10:00:00 Ts debe ser mayor o igual a Td Ts=5.0 - Td=5.1 2023-11-08 10:25:00
1 2019-11-08 11:00:00 Ts debe ser mayor o igual a Td Ts=6.1 - Td=6.9 2023-11-08 10:25:00
1 2019-11-09 10:00:00 Ts debe ser mayor o igual a Td Ts=4.3 - Td=5.1 2023-11-08 10:25:00
1 2019-11-09 11:00:00 Ts debe ser mayor o igual a Td Ts=6.0 - Td=8.5 2023-11-08 10:25:00
1 2019-11-10 10:00:00 Ts debe ser mayor o igual a Td Ts=8.0 - Td=9.4 2023-11-08 10:25:00
1 2019-11-10 11:00:00 Ts debe ser mayor o igual a Td Ts=9.9 - Td=12.1 2023-11-08 10:25:00
1 2019-11-11 10:00:00 Ts debe ser mayor o igual a Td Ts=8.4 - Td=10.0 2023-11-08 10:25:00
1 2019-11-11 11:00:00 Ts debe ser mayor o igual a Td Ts=10.6 - Td=12.8 2023-11-08 10:25:00
1 2019-11-12 10:00:00 Ts debe ser mayor o igual a Td Ts=7.8 - Td=8.1 2023-11-08 10:25:00
1 2019-11-12 11:00:00 Ts debe ser mayor o igual a Td Ts=8.4 - Td=10.2 2023-11-08 10:25:00
1 2019-11-12 12:00:00 Ts debe ser mayor o igual a Td Ts=10.5 - Td=11.4 2023-11-08 10:25:00
1 2019-11-12 13:00:00 Ts debe ser mayor o igual a Td Ts=11.9 - Td=15.0 2023-11-08 10:25:00
1 2019-11-13 08:00:00 Ts debe ser mayor o igual a Td Ts=6.4 - Td=7.3 2023-11-08 10:25:00
1 2019-11-13 09:00:00 Ts debe ser mayor o igual a Td Ts=7.7 - Td=7.9 2023-11-08 10:25:00
1 2019-11-13 10:00:00 Ts debe ser mayor o igual a Td Ts=8.3 - Td=9.0 2023-11-08 10:25:00
1 2019-11-13 11:00:00 Ts debe ser mayor o igual a Td Ts=9.3 - Td=9.8 2023-11-08 10:25:00
1 2019-11-13 12:00:00 Ts debe ser mayor o igual a Td Ts=10.2 - Td=10.4 2023-11-08 10:25:00
1 2019-11-13 13:00:00 Ts debe ser mayor o igual a Td Ts=11.0 - Td=13.3 2023-11-08 10:25:00
1 2019-11-14 10:00:00 Ts debe ser mayor o igual a Td Ts=6.5 - Td=7.0 2023-11-08 10:25:00
1 2019-11-14 11:00:00 Ts debe ser mayor o igual a Td Ts=7.3 - Td=9.8 2023-11-08 10:25:00
1 2019-11-14 12:00:00 Ts debe ser mayor o igual a Td Ts=10.1 - Td=12.0 2023-11-08 10:25:00
1 2019-11-15 15:00:00 Ts debe ser mayor o igual a Td Ts=14.9 - Td=15.0 2023-11-08 10:25:00
1 2019-11-15 17:00:00 Ts debe ser mayor o igual a Td Ts=15.5 - Td=16.7 2023-11-08 10:25:00
1 2019-11-16 07:00:00 Ts debe ser mayor o igual a Td Ts=7.5 - Td=8.2 2023-11-08 10:25:00
1 2019-11-16 09:00:00 Ts debe ser mayor o igual a Td Ts=8.3 - Td=8.4 2023-11-08 10:25:00
1 2019-11-16 10:00:00 Ts debe ser mayor o igual a Td Ts=8.6 - Td=8.8 2023-11-08 10:25:00
1 2019-11-16 11:00:00 Ts debe ser mayor o igual a Td Ts=9.1 - Td=10.0 2023-11-08 10:25:00
1 2019-11-16 12:00:00 Ts debe ser mayor o igual a Td Ts=10.2 - Td=12.1 2023-11-08 10:25:00
1 2019-11-16 13:00:00 Ts debe ser mayor o igual a Td Ts=12.4 - Td=14.2 2023-11-08 10:25:00
1 2019-11-17 13:00:00 Ts debe ser mayor o igual a Td Ts=14.5 - Td=14.7 2023-11-08 10:25:00
1 2019-11-18 08:00:00 Ts debe ser mayor o igual a Td Ts=8.9 - Td=9.0 2023-11-08 10:25:00
1 2019-11-18 10:00:00 Ts debe ser mayor o igual a Td Ts=9.3 - Td=9.7 2023-11-08 10:25:00
1 2019-11-18 11:00:00 Ts debe ser mayor o igual a Td Ts=9.9 - Td=10.6 2023-11-08 10:25:00
1 2019-11-18 12:00:00 Ts debe ser mayor o igual a Td Ts=10.9 - Td=11.1 2023-11-08 10:25:00
1 2019-11-18 13:00:00 Ts debe ser mayor o igual a Td Ts=11.4 - Td=12.3 2023-11-08 10:25:00
1 2019-11-18 14:00:00 Ts debe ser mayor o igual a Td Ts=12.6 - Td=15.1 2023-11-08 10:25:00
1 2019-11-19 10:00:00 Ts debe ser mayor o igual a Td Ts=8.3 - Td=9.0 2023-11-08 10:25:00
1 2019-11-19 11:00:00 Ts debe ser mayor o igual a Td Ts=9.3 - Td=10.0 2023-11-08 10:25:00
1 2019-11-19 12:00:00 Ts debe ser mayor o igual a Td Ts=10.3 - Td=11.4 2023-11-08 10:25:00
1 2019-11-19 13:00:00 Ts debe ser mayor o igual a Td Ts=11.7 - Td=13.9 2023-11-08 10:25:00
1 2019-11-20 08:00:00 Ts debe ser mayor o igual a Td Ts=7.1 - Td=7.6 2023-11-08 10:25:00
1 2019-11-20 11:00:00 Ts debe ser mayor o igual a Td Ts=8.1 - Td=9.0 2023-11-08 10:25:00
1 2019-11-20 12:00:00 Ts debe ser mayor o igual a Td Ts=9.2 - Td=10.5 2023-11-08 10:25:00
1 2019-11-20 13:00:00 Ts debe ser mayor o igual a Td Ts=10.8 - Td=11.7 2023-11-08 10:25:00
1 2019-11-21 10:00:00 Ts debe ser mayor o igual a Td Ts=4.0 - Td=6.1 2023-11-08 10:25:00
1 2019-11-21 11:00:00 Ts debe ser mayor o igual a Td Ts=6.5 - Td=7.9 2023-11-08 10:25:00
1 2019-11-22 10:00:00 Ts debe ser mayor o igual a Td Ts=4.7 - Td=7.4 2023-11-08 10:25:00
1 2019-11-22 11:00:00 Ts debe ser mayor o igual a Td Ts=8.0 - Td=10.6 2023-11-08 10:25:00
1 2019-11-24 11:00:00 Ts debe ser mayor o igual a Td Ts=12.6 - Td=13.3 2023-11-08 10:25:00
1 2019-11-24 12:00:00 Ts debe ser mayor o igual a Td Ts=13.7 - Td=15.1 2023-11-08 10:25:00
1 2019-11-26 08:00:00 Ts debe ser mayor o igual a Td Ts=6.0 - Td=6.2 2023-11-08 10:25:00
1 2019-11-26 10:00:00 Ts debe ser mayor o igual a Td Ts=6.4 - Td=6.7 2023-11-08 10:25:00
1 2019-11-26 11:00:00 Ts debe ser mayor o igual a Td Ts=7.1 - Td=8.0 2023-11-08 10:25:00
1 2019-11-26 12:00:00 Ts debe ser mayor o igual a Td Ts=8.4 - Td=10.9 2023-11-08 10:25:00
1 2019-11-27 05:00:00 Ts debe ser mayor o igual a Td Ts=9.4 - Td=9.5 2023-11-08 10:25:00
1 2019-11-27 11:00:00 Ts debe ser mayor o igual a Td Ts=9.7 - Td=10.5 2023-11-08 10:25:00
1 2019-11-29 04:00:00 Ts debe ser mayor o igual a Td Ts=9.9 - Td=10.2 2023-11-08 10:25:00
1 2019-11-29 10:00:00 Ts debe ser mayor o igual a Td Ts=10.2 - Td=10.6 2023-11-08 10:25:00
1 2019-11-29 12:00:00 Ts debe ser mayor o igual a Td Ts=11.6 - Td=12.2 2023-11-08 10:25:00
1 2019-11-30 11:00:00 Ts debe ser mayor o igual a Td Ts=10.7 - Td=10.9 2023-11-08 10:25:00
1 2019-11-30 12:00:00 Ts debe ser mayor o igual a Td Ts=11.5 - Td=11.8 2023-11-08 10:25:00
1 2019-12-01 10:00:00 Ts debe ser mayor o igual a Td Ts=5.2 - Td=8.7 2023-11-08 10:25:00
1 2019-12-01 11:00:00 Ts debe ser mayor o igual a Td Ts=9.2 - Td=10.7 2023-11-08 10:25:00
1 2019-12-02 10:00:00 Ts debe ser mayor o igual a Td Ts=9.8 - Td=10.1 2023-11-08 10:25:00
1 2019-12-02 11:00:00 Ts debe ser mayor o igual a Td Ts=10.5 - Td=12.4 2023-11-08 10:25:00
1 2019-12-02 12:00:00 Ts debe ser mayor o igual a Td Ts=12.8 - Td=13.5 2023-11-08 10:25:00
1 2019-12-04 10:00:00 Ts debe ser mayor o igual a Td Ts=4.9 - Td=7.0 2023-11-08 10:26:00
1 2019-12-04 11:00:00 Ts debe ser mayor o igual a Td Ts=8.0 - Td=10.0 2023-11-08 10:26:00
1 2019-12-08 07:00:00 Ts debe ser mayor o igual a Td Ts=9.9 - Td=10.0 2023-11-08 10:26:00
1 2019-12-08 10:00:00 Ts debe ser mayor o igual a Td Ts=9.4 - Td=10.2 2023-11-08 10:26:00
1 2019-12-08 11:00:00 Ts debe ser mayor o igual a Td Ts=10.6 - Td=12.3 2023-11-08 10:26:00
1 2019-12-10 10:00:00 Ts debe ser mayor o igual a Td Ts=6.8 - Td=8.1 2023-11-08 10:26:00
1 2019-12-10 11:00:00 Ts debe ser mayor o igual a Td Ts=8.4 - Td=10.5 2023-11-08 10:26:00
1 2019-12-10 12:00:00 Ts debe ser mayor o igual a Td Ts=10.9 - Td=14.9 2023-11-08 10:26:00
1 2019-12-11 06:00:00 Ts debe ser mayor o igual a Td Ts=10.0 - Td=10.5 2023-11-08 10:26:00
1 2019-12-11 11:00:00 Ts debe ser mayor o igual a Td Ts=12.4 - Td=12.8 2023-11-08 10:26:00
1 2019-12-11 13:00:00 Ts debe ser mayor o igual a Td Ts=13.7 - Td=14.5 2023-11-08 10:26:00
1 2019-12-12 10:00:00 Ts debe ser mayor o igual a Td Ts=3.1 - Td=4.7 2023-11-08 10:26:00
1 2019-12-12 11:00:00 Ts debe ser mayor o igual a Td Ts=5.1 - Td=7.7 2023-11-08 10:26:00
1 2019-12-12 12:00:00 Ts debe ser mayor o igual a Td Ts=8.1 - Td=9.0 2023-11-08 10:26:00
1 2019-12-12 13:00:00 Ts debe ser mayor o igual a Td Ts=10.0 - Td=10.8 2023-11-08 10:26:00
1 2019-12-13 11:00:00 Ts debe ser mayor o igual a Td Ts=11.1 - Td=13.0 2023-11-08 10:26:00
1 2019-12-14 10:00:00 Ts debe ser mayor o igual a Td Ts=6.6 - Td=7.5 2023-11-08 10:26:00
1 2019-12-14 11:00:00 Ts debe ser mayor o igual a Td Ts=7.8 - Td=11.3 2023-11-08 10:26:00
1 2019-12-14 12:00:00 Ts debe ser mayor o igual a Td Ts=11.6 - Td=11.8 2023-11-08 10:26:00
1 2019-12-15 10:00:00 Ts debe ser mayor o igual a Td Ts=5.4 - Td=7.4 2023-11-08 10:26:00
1 2019-12-15 11:00:00 Ts debe ser mayor o igual a Td Ts=7.9 - Td=10.4 2023-11-08 10:26:00
1 2019-12-15 12:00:00 Ts debe ser mayor o igual a Td Ts=11.5 - Td=12.9 2023-11-08 10:26:00
1 2019-12-16 10:00:00 Ts debe ser mayor o igual a Td Ts=6.3 - Td=8.7 2023-11-08 10:26:00
1 2019-12-16 11:00:00 Ts debe ser mayor o igual a Td Ts=9.2 - Td=11.7 2023-11-08 10:26:00
1 2019-12-17 10:00:00 Ts debe ser mayor o igual a Td Ts=6.3 - Td=8.9 2023-11-08 10:26:00
1 2019-12-17 11:00:00 Ts debe ser mayor o igual a Td Ts=9.3 - Td=11.1 2023-11-08 10:26:00
Errores del Nivel 205
Informe generado el 05-03-2024 10:56
Requerimiento: RE6001